sensor_id;sensor_type;location;lat;lon;timestamp;P1;durP1;ratioP1;P2;durP2;ratioP2
41179;SDS011;26913;48.240;16.496;2023-02-10T00:00:46;24.10;;;14.33;;
41179;SDS011;26913;48.240;16.496;2023-02-10T00:03:12;26.70;;;14.57;;
41179;SDS011;26913;48.240;16.496;2023-02-10T00:05:37;23.77;;;13.63;;
41179;SDS011;26913;48.240;16.496;2023-02-10T00:08:03;19.90;;;13.50;;
41179;SDS011;26913;48.240;16.496;2023-02-10T00:10:29;24.27;;;15.30;;
41179;SDS011;26913;48.240;16.496;2023-02-10T00:12:54;22.30;;;12.63;;
41179;SDS011;26913;48.240;16.496;2023-02-10T00:15:20;23.67;;;13.10;;
41179;SDS011;26913;48.240;16.496;2023-02-10T00:17:45;22.93;;;13.87;;
41179;SDS011;26913;48.240;16.496;2023-02-10T00:20:10;24.27;;;14.80;;
41179;SDS011;26913;48.240;16.496;2023-02-10T00:22:36;23.00;;;14.07;;
41179;SDS011;26913;48.240;16.496;2023-02-10T00:25:01;23.60;;;14.17;;
41179;SDS011;26913;48.240;16.496;2023-02-10T00:27:27;26.50;;;13.90;;
41179;SDS011;26913;48.240;16.496;2023-02-10T00:29:52;23.73;;;12.90;;
41179;SDS011;26913;48.240;16.496;2023-02-10T00:32:18;23.23;;;13.77;;
41179;SDS011;26913;48.240;16.496;2023-02-10T00:34:44;26.33;;;14.23;;
41179;SDS011;26913;48.240;16.496;2023-02-10T00:37:10;21.33;;;13.23;;
41179;SDS011;26913;48.240;16.496;2023-02-10T00:39:35;21.83;;;12.97;;
41179;SDS011;26913;48.240;16.496;2023-02-10T00:42:01;25.33;;;14.27;;
41179;SDS011;26913;48.240;16.496;2023-02-10T00:44:26;22.93;;;13.50;;
41179;SDS011;26913;48.240;16.496;2023-02-10T00:46:52;29.87;;;14.07;;
41179;SDS011;26913;48.240;16.496;2023-02-10T00:49:17;25.80;;;14.83;;
41179;SDS011;26913;48.240;16.496;2023-02-10T00:51:43;26.20;;;15.23;;
41179;SDS011;26913;48.240;16.496;2023-02-10T00:54:11;24.13;;;15.43;;
41179;SDS011;26913;48.240;16.496;2023-02-10T00:56:37;27.83;;;16.83;;
41179;SDS011;26913;48.240;16.496;2023-02-10T00:59:03;28.70;;;16.77;;
41179;SDS011;26913;48.240;16.496;2023-02-10T01:01:28;28.87;;;16.30;;
41179;SDS011;26913;48.240;16.496;2023-02-10T01:03:54;28.07;;;16.80;;
41179;SDS011;26913;48.240;16.496;2023-02-10T01:06:19;27.97;;;16.57;;
41179;SDS011;26913;48.240;16.496;2023-02-10T01:08:45;28.60;;;16.53;;
41179;SDS011;26913;48.240;16.496;2023-02-10T01:11:11;31.00;;;16.03;;
41179;SDS011;26913;48.240;16.496;2023-02-10T01:13:37;29.57;;;17.30;;
41179;SDS011;26913;48.240;16.496;2023-02-10T01:16:04;29.37;;;17.27;;
41179;SDS011;26913;48.240;16.496;2023-02-10T01:18:30;32.17;;;18.53;;
41179;SDS011;26913;48.240;16.496;2023-02-10T01:20:56;29.70;;;15.73;;
41179;SDS011;26913;48.240;16.496;2023-02-10T01:23:21;30.07;;;18.43;;
41179;SDS011;26913;48.240;16.496;2023-02-10T01:25:47;27.83;;;15.40;;
41179;SDS011;26913;48.240;16.496;2023-02-10T01:28:12;28.63;;;17.40;;
41179;SDS011;26913;48.240;16.496;2023-02-10T01:30:38;30.70;;;17.47;;
41179;SDS011;26913;48.240;16.496;2023-02-10T01:33:03;27.70;;;15.53;;
41179;SDS011;26913;48.240;16.496;2023-02-10T01:35:29;28.87;;;15.60;;
41179;SDS011;26913;48.240;16.496;2023-02-10T01:37:55;31.17;;;15.47;;
41179;SDS011;26913;48.240;16.496;2023-02-10T01:40:21;30.77;;;17.33;;
41179;SDS011;26913;48.240;16.496;2023-02-10T01:42:47;29.30;;;16.53;;
41179;SDS011;26913;48.240;16.496;2023-02-10T01:47:42;29.33;;;15.30;;
41179;SDS011;26913;48.240;16.496;2023-02-10T01:50:07;26.27;;;14.73;;
41179;SDS011;26913;48.240;16.496;2023-02-10T01:52:33;30.57;;;17.80;;
41179;SDS011;26913;48.240;16.496;2023-02-10T01:55:01;27.43;;;15.97;;
41179;SDS011;26913;48.240;16.496;2023-02-10T01:57:29;25.77;;;14.90;;
41179;SDS011;26913;48.240;16.496;2023-02-10T01:59:55;26.20;;;15.77;;
41179;SDS011;26913;48.240;16.496;2023-02-10T02:02:22;30.73;;;16.53;;
41179;SDS011;26913;48.240;16.496;2023-02-10T02:07:14;28.90;;;15.33;;
41179;SDS011;26913;48.240;16.496;2023-02-10T02:09:40;26.30;;;15.67;;
41179;SDS011;26913;48.240;16.496;2023-02-10T02:17:31;28.60;;;15.37;;
41179;SDS011;26913;48.240;16.496;2023-02-10T02:33:47;29.37;;;16.27;;
41179;SDS011;26913;48.240;16.496;2023-02-10T02:36:17;31.00;;;16.17;;
41179;SDS011;26913;48.240;16.496;2023-02-10T02:38:45;25.47;;;14.50;;
41179;SDS011;26913;48.240;16.496;2023-02-10T02:41:10;28.63;;;15.77;;
41179;SDS011;26913;48.240;16.496;2023-02-10T02:43:36;28.60;;;16.10;;
41179;SDS011;26913;48.240;16.496;2023-02-10T02:49:13;25.57;;;14.93;;
41179;SDS011;26913;48.240;16.496;2023-02-10T02:54:21;29.80;;;16.47;;
41179;SDS011;26913;48.240;16.496;2023-02-10T02:57:05;29.00;;;16.17;;
41179;SDS011;26913;48.240;16.496;2023-02-10T03:02:08;28.20;;;16.57;;
41179;SDS011;26913;48.240;16.496;2023-02-10T03:04:36;30.13;;;17.33;;
41179;SDS011;26913;48.240;16.496;2023-02-10T03:07:03;29.77;;;15.27;;
41179;SDS011;26913;48.240;16.496;2023-02-10T03:09:29;24.70;;;14.47;;
41179;SDS011;26913;48.240;16.496;2023-02-10T03:11:54;27.90;;;15.60;;
41179;SDS011;26913;48.240;16.496;2023-02-10T03:14:20;28.20;;;16.17;;
41179;SDS011;26913;48.240;16.496;2023-02-10T03:16:45;25.40;;;14.73;;
41179;SDS011;26913;48.240;16.496;2023-02-10T03:19:11;30.83;;;16.47;;
41179;SDS011;26913;48.240;16.496;2023-02-10T03:21:37;28.13;;;16.00;;
41179;SDS011;26913;48.240;16.496;2023-02-10T03:24:02;25.90;;;14.73;;
41179;SDS011;26913;48.240;16.496;2023-02-10T03:26:28;27.40;;;14.60;;
41179;SDS011;26913;48.240;16.496;2023-02-10T03:28:54;24.70;;;15.13;;
41179;SDS011;26913;48.240;16.496;2023-02-10T03:31:20;30.43;;;16.93;;
41179;SDS011;26913;48.240;16.496;2023-02-10T03:33:46;27.73;;;15.53;;
41179;SDS011;26913;48.240;16.496;2023-02-10T03:36:11;24.03;;;13.70;;
41179;SDS011;26913;48.240;16.496;2023-02-10T03:38:37;27.90;;;15.90;;
41179;SDS011;26913;48.240;16.496;2023-02-10T03:41:02;27.97;;;15.73;;
41179;SDS011;26913;48.240;16.496;2023-02-10T03:43:28;31.53;;;16.33;;
41179;SDS011;26913;48.240;16.496;2023-02-10T03:45:58;30.30;;;16.43;;
41179;SDS011;26913;48.240;16.496;2023-02-10T03:48:24;27.17;;;15.10;;
41179;SDS011;26913;48.240;16.496;2023-02-10T03:50:55;25.73;;;14.33;;
41179;SDS011;26913;48.240;16.496;2023-02-10T03:53:21;26.53;;;15.43;;
41179;SDS011;26913;48.240;16.496;2023-02-10T03:55:47;25.40;;;14.73;;
41179;SDS011;26913;48.240;16.496;2023-02-10T03:58:12;26.47;;;16.97;;
41179;SDS011;26913;48.240;16.496;2023-02-10T04:00:37;26.17;;;15.17;;
41179;SDS011;26913;48.240;16.496;2023-02-10T04:03:03;32.40;;;15.30;;
41179;SDS011;26913;48.240;16.496;2023-02-10T04:05:28;27.83;;;15.37;;
41179;SDS011;26913;48.240;16.496;2023-02-10T04:07:54;29.33;;;16.17;;
41179;SDS011;26913;48.240;16.496;2023-02-10T04:10:19;23.60;;;14.23;;
41179;SDS011;26913;48.240;16.496;2023-02-10T04:12:45;28.40;;;14.50;;
41179;SDS011;26913;48.240;16.496;2023-02-10T04:15:11;30.83;;;15.57;;
41179;SDS011;26913;48.240;16.496;2023-02-10T04:17:37;32.63;;;16.23;;
41179;SDS011;26913;48.240;16.496;2023-02-10T04:20:02;29.47;;;15.17;;
41179;SDS011;26913;48.240;16.496;2023-02-10T04:22:28;27.80;;;15.57;;
41179;SDS011;26913;48.240;16.496;2023-02-10T04:24:54;26.03;;;14.27;;
41179;SDS011;26913;48.240;16.496;2023-02-10T04:27:19;31.47;;;15.73;;
41179;SDS011;26913;48.240;16.496;2023-02-10T04:29:45;30.97;;;15.87;;
41179;SDS011;26913;48.240;16.496;2023-02-10T04:32:10;30.83;;;16.80;;
41179;SDS011;26913;48.240;16.496;2023-02-10T04:34:35;33.37;;;14.70;;
41179;SDS011;26913;48.240;16.496;2023-02-10T04:37:01;26.30;;;15.20;;
41179;SDS011;26913;48.240;16.496;2023-02-10T04:39:27;28.80;;;16.57;;
41179;SDS011;26913;48.240;16.496;2023-02-10T04:41:52;32.83;;;16.23;;
41179;SDS011;26913;48.240;16.496;2023-02-10T04:44:18;32.93;;;14.90;;
41179;SDS011;26913;48.240;16.496;2023-02-10T04:46:43;25.07;;;14.70;;
41179;SDS011;26913;48.240;16.496;2023-02-10T04:49:09;32.30;;;16.30;;
41179;SDS011;26913;48.240;16.496;2023-02-10T04:51:34;33.40;;;15.87;;
41179;SDS011;26913;48.240;16.496;2023-02-10T04:54:00;28.57;;;15.70;;
41179;SDS011;26913;48.240;16.496;2023-02-10T04:56:25;29.13;;;15.60;;
41179;SDS011;26913;48.240;16.496;2023-02-10T04:58:50;32.90;;;17.50;;
41179;SDS011;26913;48.240;16.496;2023-02-10T05:01:16;30.73;;;15.87;;
41179;SDS011;26913;48.240;16.496;2023-02-10T05:03:41;40.83;;;18.37;;
41179;SDS011;26913;48.240;16.496;2023-02-10T05:06:07;29.37;;;16.17;;
41179;SDS011;26913;48.240;16.496;2023-02-10T05:08:37;28.53;;;15.50;;
41179;SDS011;26913;48.240;16.496;2023-02-10T05:11:08;27.77;;;16.90;;
41179;SDS011;26913;48.240;16.496;2023-02-10T05:13:35;28.40;;;16.00;;
41179;SDS011;26913;48.240;16.496;2023-02-10T05:16:00;29.70;;;15.90;;
41179;SDS011;26913;48.240;16.496;2023-02-10T05:18:30;39.70;;;17.23;;
41179;SDS011;26913;48.240;16.496;2023-02-10T05:20:56;30.07;;;15.83;;
41179;SDS011;26913;48.240;16.496;2023-02-10T05:23:22;30.67;;;16.63;;
41179;SDS011;26913;48.240;16.496;2023-02-10T05:25:47;38.00;;;19.63;;
41179;SDS011;26913;48.240;16.496;2023-02-10T05:28:13;34.67;;;16.90;;
41179;SDS011;26913;48.240;16.496;2023-02-10T05:30:39;35.93;;;18.03;;
41179;SDS011;26913;48.240;16.496;2023-02-10T05:33:05;35.53;;;18.17;;
41179;SDS011;26913;48.240;16.496;2023-02-10T05:35:30;31.03;;;16.57;;
41179;SDS011;26913;48.240;16.496;2023-02-10T05:37:56;40.63;;;17.47;;
41179;SDS011;26913;48.240;16.496;2023-02-10T05:40:21;30.27;;;16.57;;
41179;SDS011;26913;48.240;16.496;2023-02-10T05:42:49;37.60;;;18.47;;
41179;SDS011;26913;48.240;16.496;2023-02-10T05:45:14;39.07;;;19.30;;
41179;SDS011;26913;48.240;16.496;2023-02-10T05:47:40;38.73;;;19.27;;
41179;SDS011;26913;48.240;16.496;2023-02-10T05:50:06;45.47;;;20.03;;
41179;SDS011;26913;48.240;16.496;2023-02-10T05:52:31;37.77;;;20.63;;
41179;SDS011;26913;48.240;16.496;2023-02-10T05:54:57;32.07;;;17.90;;
41179;SDS011;26913;48.240;16.496;2023-02-10T05:57:22;36.70;;;19.13;;
41179;SDS011;26913;48.240;16.496;2023-02-10T05:59:48;36.57;;;19.40;;
41179;SDS011;26913;48.240;16.496;2023-02-10T06:02:13;37.17;;;19.53;;
41179;SDS011;26913;48.240;16.496;2023-02-10T06:04:39;32.37;;;19.30;;
41179;SDS011;26913;48.240;16.496;2023-02-10T06:07:04;37.47;;;18.73;;
41179;SDS011;26913;48.240;16.496;2023-02-10T06:09:30;31.03;;;17.87;;
41179;SDS011;26913;48.240;16.496;2023-02-10T06:11:55;34.77;;;18.73;;
41179;SDS011;26913;48.240;16.496;2023-02-10T06:14:21;32.77;;;18.03;;
41179;SDS011;26913;48.240;16.496;2023-02-10T06:16:46;37.40;;;19.07;;
41179;SDS011;26913;48.240;16.496;2023-02-10T06:19:12;37.40;;;19.97;;
41179;SDS011;26913;48.240;16.496;2023-02-10T06:21:37;36.37;;;18.20;;
41179;SDS011;26913;48.240;16.496;2023-02-10T06:24:03;30.63;;;18.37;;
41179;SDS011;26913;48.240;16.496;2023-02-10T06:26:28;32.20;;;17.83;;
41179;SDS011;26913;48.240;16.496;2023-02-10T06:28:54;30.93;;;18.23;;
41179;SDS011;26913;48.240;16.496;2023-02-10T06:31:21;27.87;;;16.40;;
41179;SDS011;26913;48.240;16.496;2023-02-10T06:33:46;30.57;;;16.80;;
41179;SDS011;26913;48.240;16.496;2023-02-10T06:36:12;34.27;;;17.77;;
41179;SDS011;26913;48.240;16.496;2023-02-10T06:38:38;34.47;;;18.13;;
41179;SDS011;26913;48.240;16.496;2023-02-10T06:41:04;31.00;;;16.83;;
41179;SDS011;26913;48.240;16.496;2023-02-10T06:43:30;33.20;;;19.60;;
41179;SDS011;26913;48.240;16.496;2023-02-10T06:45:56;36.33;;;19.93;;
41179;SDS011;26913;48.240;16.496;2023-02-10T06:48:24;29.83;;;16.63;;
41179;SDS011;26913;48.240;16.496;2023-02-10T06:50:51;38.67;;;19.13;;
41179;SDS011;26913;48.240;16.496;2023-02-10T06:53:18;35.00;;;17.40;;
41179;SDS011;26913;48.240;16.496;2023-02-10T06:55:43;37.67;;;18.70;;
41179;SDS011;26913;48.240;16.496;2023-02-10T06:58:09;34.30;;;17.83;;
41179;SDS011;26913;48.240;16.496;2023-02-10T07:00:35;36.67;;;18.10;;
41179;SDS011;26913;48.240;16.496;2023-02-10T07:03:01;31.87;;;17.90;;
41179;SDS011;26913;48.240;16.496;2023-02-10T07:05:26;32.87;;;18.23;;
41179;SDS011;26913;48.240;16.496;2023-02-10T07:07:52;34.43;;;19.63;;
41179;SDS011;26913;48.240;16.496;2023-02-10T07:10:19;45.10;;;20.93;;
41179;SDS011;26913;48.240;16.496;2023-02-10T07:12:48;54.33;;;22.10;;
41179;SDS011;26913;48.240;16.496;2023-02-10T07:15:13;32.57;;;18.50;;
41179;SDS011;26913;48.240;16.496;2023-02-10T07:17:39;37.27;;;20.37;;
41179;SDS011;26913;48.240;16.496;2023-02-10T07:20:04;33.53;;;18.67;;
41179;SDS011;26913;48.240;16.496;2023-02-10T07:22:31;35.03;;;19.70;;
41179;SDS011;26913;48.240;16.496;2023-02-10T07:24:56;32.27;;;19.80;;
41179;SDS011;26913;48.240;16.496;2023-02-10T07:27:22;34.40;;;19.10;;
41179;SDS011;26913;48.240;16.496;2023-02-10T07:29:47;29.57;;;17.83;;
41179;SDS011;26913;48.240;16.496;2023-02-10T07:32:14;29.77;;;18.83;;
41179;SDS011;26913;48.240;16.496;2023-02-10T07:34:39;33.97;;;19.30;;
41179;SDS011;26913;48.240;16.496;2023-02-10T07:37:06;32.40;;;19.73;;
41179;SDS011;26913;48.240;16.496;2023-02-10T07:39:32;31.00;;;19.47;;
41179;SDS011;26913;48.240;16.496;2023-02-10T07:41:57;43.10;;;19.53;;
41179;SDS011;26913;48.240;16.496;2023-02-10T07:44:23;33.97;;;21.53;;
41179;SDS011;26913;48.240;16.496;2023-02-10T07:46:50;35.43;;;20.53;;
41179;SDS011;26913;48.240;16.496;2023-02-10T07:49:16;37.30;;;20.17;;
41179;SDS011;26913;48.240;16.496;2023-02-10T07:51:42;32.07;;;19.13;;
41179;SDS011;26913;48.240;16.496;2023-02-10T07:54:07;31.00;;;18.60;;
41179;SDS011;26913;48.240;16.496;2023-02-10T07:56:33;33.27;;;19.40;;
41179;SDS011;26913;48.240;16.496;2023-02-10T07:58:59;32.17;;;18.60;;
41179;SDS011;26913;48.240;16.496;2023-02-10T08:01:24;26.87;;;18.27;;
41179;SDS011;26913;48.240;16.496;2023-02-10T08:03:50;31.83;;;19.13;;
41179;SDS011;26913;48.240;16.496;2023-02-10T08:06:19;31.00;;;18.03;;
41179;SDS011;26913;48.240;16.496;2023-02-10T08:08:45;30.70;;;17.80;;
41179;SDS011;26913;48.240;16.496;2023-02-10T08:11:11;31.40;;;17.33;;
41179;SDS011;26913;48.240;16.496;2023-02-10T08:13:37;27.40;;;18.27;;
41179;SDS011;26913;48.240;16.496;2023-02-10T08:16:03;32.37;;;19.40;;
41179;SDS011;26913;48.240;16.496;2023-02-10T08:18:33;28.47;;;18.50;;
41179;SDS011;26913;48.240;16.496;2023-02-10T08:20:59;31.33;;;17.93;;
41179;SDS011;26913;48.240;16.496;2023-02-10T08:23:25;28.53;;;19.73;;
41179;SDS011;26913;48.240;16.496;2023-02-10T08:25:51;31.30;;;18.60;;
41179;SDS011;26913;48.240;16.496;2023-02-10T08:28:16;32.78;;;17.10;;
41179;SDS011;26913;48.240;16.496;2023-02-10T08:30:42;27.25;;;18.35;;
41179;SDS011;26913;48.240;16.496;2023-02-10T08:33:10;31.83;;;18.73;;
41179;SDS011;26913;48.240;16.496;2023-02-10T08:35:36;32.08;;;17.65;;
41179;SDS011;26913;48.240;16.496;2023-02-10T08:38:02;34.40;;;19.55;;
41179;SDS011;26913;48.240;16.496;2023-02-10T08:40:28;46.55;;;18.35;;
41179;SDS011;26913;48.240;16.496;2023-02-10T08:42:53;27.35;;;16.42;;
41179;SDS011;26913;48.240;16.496;2023-02-10T08:45:19;30.55;;;18.42;;
41179;SDS011;26913;48.240;16.496;2023-02-10T08:47:44;27.67;;;16.38;;
41179;SDS011;26913;48.240;16.496;2023-02-10T08:50:10;40.47;;;18.75;;
41179;SDS011;26913;48.240;16.496;2023-02-10T08:52:35;30.52;;;17.92;;
41179;SDS011;26913;48.240;16.496;2023-02-10T08:55:04;30.67;;;18.98;;
41179;SDS011;26913;48.240;16.496;2023-02-10T08:57:31;38.60;;;18.85;;
41179;SDS011;26913;48.240;16.496;2023-02-10T08:59:58;48.45;;;19.85;;
41179;SDS011;26913;48.240;16.496;2023-02-10T09:02:23;24.17;;;17.80;;
41179;SDS011;26913;48.240;16.496;2023-02-10T09:04:49;26.95;;;16.05;;
41179;SDS011;26913;48.240;16.496;2023-02-10T09:07:14;33.75;;;19.23;;
41179;SDS011;26913;48.240;16.496;2023-02-10T09:09:41;33.78;;;18.38;;
41179;SDS011;26913;48.240;16.496;2023-02-10T09:12:07;29.60;;;16.42;;
41179;SDS011;26913;48.240;16.496;2023-02-10T09:14:35;34.72;;;19.75;;
41179;SDS011;26913;48.240;16.496;2023-02-10T09:17:01;40.58;;;19.35;;
41179;SDS011;26913;48.240;16.496;2023-02-10T09:19:27;37.78;;;18.20;;
41179;SDS011;26913;48.240;16.496;2023-02-10T09:21:53;32.15;;;19.27;;
41179;SDS011;26913;48.240;16.496;2023-02-10T09:24:20;33.90;;;19.95;;
41179;SDS011;26913;48.240;16.496;2023-02-10T09:26:46;33.80;;;18.35;;
41179;SDS011;26913;48.240;16.496;2023-02-10T09:29:12;27.90;;;17.77;;
41179;SDS011;26913;48.240;16.496;2023-02-10T09:31:37;28.33;;;18.63;;
41179;SDS011;26913;48.240;16.496;2023-02-10T09:34:03;25.85;;;17.63;;
41179;SDS011;26913;48.240;16.496;2023-02-10T09:36:29;28.38;;;18.58;;
41179;SDS011;26913;48.240;16.496;2023-02-10T09:38:55;33.55;;;18.58;;
41179;SDS011;26913;48.240;16.496;2023-02-10T09:52:32;25.63;;;17.23;;
41179;SDS011;26913;48.240;16.496;2023-02-10T09:54:56;39.83;;;21.05;;
41179;SDS011;26913;48.240;16.496;2023-02-10T09:57:24;30.75;;;19.55;;
41179;SDS011;26913;48.240;16.496;2023-02-10T10:00:02;26.23;;;19.58;;
41179;SDS011;26913;48.240;16.496;2023-02-10T10:02:32;32.42;;;20.88;;
41179;SDS011;26913;48.240;16.496;2023-02-10T10:04:59;30.17;;;21.05;;
41179;SDS011;26913;48.240;16.496;2023-02-10T10:07:32;31.27;;;21.73;;
41179;SDS011;26913;48.240;16.496;2023-02-10T10:10:14;31.33;;;19.40;;
41179;SDS011;26913;48.240;16.496;2023-02-10T10:12:52;34.92;;;20.52;;
41179;SDS011;26913;48.240;16.496;2023-02-10T10:15:19;30.48;;;21.02;;
41179;SDS011;26913;48.240;16.496;2023-02-10T10:23:23;31.00;;;20.48;;
41179;SDS011;26913;48.240;16.496;2023-02-10T10:31:29;39.03;;;21.10;;
41179;SDS011;26913;48.240;16.496;2023-02-10T10:34:09;30.92;;;21.05;;
41179;SDS011;26913;48.240;16.496;2023-02-10T10:36:47;32.17;;;22.23;;
41179;SDS011;26913;48.240;16.496;2023-02-10T10:45:03;31.02;;;22.83;;
41179;SDS011;26913;48.240;16.496;2023-02-10T10:47:36;37.13;;;23.23;;
41179;SDS011;26913;48.240;16.496;2023-02-10T10:50:10;27.25;;;20.27;;
41179;SDS011;26913;48.240;16.496;2023-02-10T10:52:40;32.40;;;23.55;;
41179;SDS011;26913;48.240;16.496;2023-02-10T10:55:17;29.98;;;21.67;;
41179;SDS011;26913;48.240;16.496;2023-02-10T10:57:47;33.78;;;21.92;;
41179;SDS011;26913;48.240;16.496;2023-02-10T11:00:15;33.50;;;25.70;;
41179;SDS011;26913;48.240;16.496;2023-02-10T11:02:55;37.70;;;23.38;;
41179;SDS011;26913;48.240;16.496;2023-02-10T11:05:21;39.63;;;23.70;;
41179;SDS011;26913;48.240;16.496;2023-02-10T11:07:49;33.33;;;23.10;;
41179;SDS011;26913;48.240;16.496;2023-02-10T11:10:23;34.00;;;23.48;;
41179;SDS011;26913;48.240;16.496;2023-02-10T11:12:55;32.75;;;23.83;;
41179;SDS011;26913;48.240;16.496;2023-02-10T11:15:28;29.40;;;22.35;;
41179;SDS011;26913;48.240;16.496;2023-02-10T11:18:00;32.50;;;23.52;;
41179;SDS011;26913;48.240;16.496;2023-02-10T11:20:27;32.78;;;22.65;;
41179;SDS011;26913;48.240;16.496;2023-02-10T11:22:58;29.05;;;21.25;;
41179;SDS011;26913;48.240;16.496;2023-02-10T11:25:28;31.10;;;23.05;;
41179;SDS011;26913;48.240;16.496;2023-02-10T11:27:55;34.75;;;21.27;;
41179;SDS011;26913;48.240;16.496;2023-02-10T11:32:53;28.55;;;20.63;;
41179;SDS011;26913;48.240;16.496;2023-02-10T11:35:19;30.92;;;20.55;;
41179;SDS011;26913;48.240;16.496;2023-02-10T11:37:49;30.05;;;21.02;;
41179;SDS011;26913;48.240;16.496;2023-02-10T11:40:19;30.83;;;21.35;;
41179;SDS011;26913;48.240;16.496;2023-02-10T11:42:54;27.92;;;19.58;;
41179;SDS011;26913;48.240;16.496;2023-02-10T11:45:31;32.63;;;20.27;;
41179;SDS011;26913;48.240;16.496;2023-02-10T11:48:05;26.85;;;18.95;;
41179;SDS011;26913;48.240;16.496;2023-02-10T11:50:46;41.30;;;19.42;;
41179;SDS011;26913;48.240;16.496;2023-02-10T11:53:23;27.00;;;16.95;;
41179;SDS011;26913;48.240;16.496;2023-02-10T11:55:58;32.72;;;18.02;;
41179;SDS011;26913;48.240;16.496;2023-02-10T12:09:34;31.02;;;17.33;;
41179;SDS011;26913;48.240;16.496;2023-02-10T12:28:37;23.48;;;15.57;;
41179;SDS011;26913;48.240;16.496;2023-02-10T12:33:48;13.70;;;8.93;;
41179;SDS011;26913;48.240;16.496;2023-02-10T12:53:23;21.00;;;14.80;;
41179;SDS011;26913;48.240;16.496;2023-02-10T12:56:00;23.38;;;15.60;;
41179;SDS011;26913;48.240;16.496;2023-02-10T12:58:29;24.45;;;15.88;;
41179;SDS011;26913;48.240;16.496;2023-02-10T13:01:04;21.40;;;14.75;;
41179;SDS011;26913;48.240;16.496;2023-02-10T13:03:37;22.17;;;14.98;;
41179;SDS011;26913;48.240;16.496;2023-02-10T13:08:48;20.10;;;14.40;;
41179;SDS011;26913;48.240;16.496;2023-02-10T13:11:20;20.50;;;14.02;;
41179;SDS011;26913;48.240;16.496;2023-02-10T13:13:52;18.48;;;13.15;;
41179;SDS011;26913;48.240;16.496;2023-02-10T13:16:20;25.70;;;15.82;;
41179;SDS011;26913;48.240;16.496;2023-02-10T13:18:58;25.92;;;15.52;;
41179;SDS011;26913;48.240;16.496;2023-02-10T13:21:35;25.13;;;15.77;;
41179;SDS011;26913;48.240;16.496;2023-02-10T13:24:11;20.92;;;13.60;;
41179;SDS011;26913;48.240;16.496;2023-02-10T13:29:50;22.15;;;14.20;;
41179;SDS011;26913;48.240;16.496;2023-02-10T13:34:48;20.60;;;15.43;;
41179;SDS011;26913;48.240;16.496;2023-02-10T13:37:22;21.17;;;13.38;;
41179;SDS011;26913;48.240;16.496;2023-02-10T13:39:55;23.63;;;16.20;;
41179;SDS011;26913;48.240;16.496;2023-02-10T13:42:38;19.75;;;13.25;;
41179;SDS011;26913;48.240;16.496;2023-02-10T13:45:05;21.60;;;12.68;;
41179;SDS011;26913;48.240;16.496;2023-02-10T13:52:47;27.83;;;15.02;;
41179;SDS011;26913;48.240;16.496;2023-02-10T13:55:25;18.40;;;12.82;;
41179;SDS011;26913;48.240;16.496;2023-02-10T14:00:28;18.27;;;12.85;;
41179;SDS011;26913;48.240;16.496;2023-02-10T14:03:17;16.67;;;11.98;;
41179;SDS011;26913;48.240;16.496;2023-02-10T14:08:43;18.77;;;12.98;;
41179;SDS011;26913;48.240;16.496;2023-02-10T14:13:43;18.50;;;12.40;;
41179;SDS011;26913;48.240;16.496;2023-02-10T14:19:06;15.63;;;11.88;;
41179;SDS011;26913;48.240;16.496;2023-02-10T14:21:45;21.45;;;12.32;;
41179;SDS011;26913;48.240;16.496;2023-02-10T14:24:14;25.75;;;13.50;;
41179;SDS011;26913;48.240;16.496;2023-02-10T14:26:42;17.83;;;11.98;;
41179;SDS011;26913;48.240;16.496;2023-02-10T14:29:13;17.38;;;11.80;;
41179;SDS011;26913;48.240;16.496;2023-02-10T14:31:41;22.02;;;12.57;;
41179;SDS011;26913;48.240;16.496;2023-02-10T14:36:49;17.27;;;12.95;;
41179;SDS011;26913;48.240;16.496;2023-02-10T14:39:23;22.90;;;13.07;;
41179;SDS011;26913;48.240;16.496;2023-02-10T14:41:50;23.85;;;13.32;;
41179;SDS011;26913;48.240;16.496;2023-02-10T14:44:34;23.48;;;13.73;;
41179;SDS011;26913;48.240;16.496;2023-02-10T14:47:02;23.08;;;14.68;;
41179;SDS011;26913;48.240;16.496;2023-02-10T14:49:28;24.65;;;14.43;;
41179;SDS011;26913;48.240;16.496;2023-02-10T14:51:58;25.35;;;15.18;;
41179;SDS011;26913;48.240;16.496;2023-02-10T14:54:24;23.40;;;14.40;;
41179;SDS011;26913;48.240;16.496;2023-02-10T14:56:52;28.42;;;15.30;;
41179;SDS011;26913;48.240;16.496;2023-02-10T14:59:31;25.48;;;14.60;;
41179;SDS011;26913;48.240;16.496;2023-02-10T15:02:04;22.58;;;15.10;;
41179;SDS011;26913;48.240;16.496;2023-02-10T15:04:36;28.02;;;16.73;;
41179;SDS011;26913;48.240;16.496;2023-02-10T15:07:02;24.55;;;15.82;;
41179;SDS011;26913;48.240;16.496;2023-02-10T15:09:29;24.48;;;15.35;;
41179;SDS011;26913;48.240;16.496;2023-02-10T15:12:00;26.08;;;16.10;;
41179;SDS011;26913;48.240;16.496;2023-02-10T15:17:18;25.55;;;15.48;;
41179;SDS011;26913;48.240;16.496;2023-02-10T15:22:31;30.20;;;15.68;;
41179;SDS011;26913;48.240;16.496;2023-02-10T15:25:23;30.65;;;16.20;;
41179;SDS011;26913;48.240;16.496;2023-02-10T15:27:57;30.23;;;17.63;;
41179;SDS011;26913;48.240;16.496;2023-02-10T15:30:27;26.08;;;16.45;;
41179;SDS011;26913;48.240;16.496;2023-02-10T15:32:57;26.40;;;16.50;;
41179;SDS011;26913;48.240;16.496;2023-02-10T15:35:24;28.80;;;15.45;;
41179;SDS011;26913;48.240;16.496;2023-02-10T15:37:54;30.17;;;16.25;;
41179;SDS011;26913;48.240;16.496;2023-02-10T15:40:26;39.25;;;17.88;;
41179;SDS011;26913;48.240;16.496;2023-02-10T15:42:57;27.92;;;16.10;;
41179;SDS011;26913;48.240;16.496;2023-02-10T15:45:43;29.23;;;16.60;;
41179;SDS011;26913;48.240;16.496;2023-02-10T15:48:09;35.45;;;16.55;;
41179;SDS011;26913;48.240;16.496;2023-02-10T15:50:40;46.78;;;21.92;;
41179;SDS011;26913;48.240;16.496;2023-02-10T15:53:08;38.80;;;18.20;;
41179;SDS011;26913;48.240;16.496;2023-02-10T15:55:36;31.80;;;15.95;;
41179;SDS011;26913;48.240;16.496;2023-02-10T15:58:04;35.17;;;19.00;;
41179;SDS011;26913;48.240;16.496;2023-02-10T16:00:34;37.55;;;18.52;;
41179;SDS011;26913;48.240;16.496;2023-02-10T16:03:01;31.70;;;16.42;;
41179;SDS011;26913;48.240;16.496;2023-02-10T16:05:27;32.65;;;18.17;;
41179;SDS011;26913;48.240;16.496;2023-02-10T16:07:55;30.00;;;16.58;;
41179;SDS011;26913;48.240;16.496;2023-02-10T16:10:29;29.02;;;16.35;;
41179;SDS011;26913;48.240;16.496;2023-02-10T16:12:55;32.45;;;17.95;;
41179;SDS011;26913;48.240;16.496;2023-02-10T16:15:22;28.50;;;18.23;;
41179;SDS011;26913;48.240;16.496;2023-02-10T16:17:50;37.78;;;19.30;;
41179;SDS011;26913;48.240;16.496;2023-02-10T16:20:21;30.77;;;17.67;;
41179;SDS011;26913;48.240;16.496;2023-02-10T16:22:50;44.95;;;18.17;;
41179;SDS011;26913;48.240;16.496;2023-02-10T16:25:18;34.22;;;19.13;;
41179;SDS011;26913;48.240;16.496;2023-02-10T16:27:45;48.63;;;19.77;;
41179;SDS011;26913;48.240;16.496;2023-02-10T16:30:15;33.42;;;18.75;;
41179;SDS011;26913;48.240;16.496;2023-02-10T16:32:44;31.67;;;19.38;;
41179;SDS011;26913;48.240;16.496;2023-02-10T16:35:11;37.83;;;19.85;;